createdAt,value
2018-06-08T00:01:48.758Z,45.80
2018-06-08T00:04:17.180Z,45.90
2018-06-08T00:06:48.555Z,45.90
2018-06-08T00:09:17.032Z,47.00
2018-06-08T00:11:46.760Z,47.20
2018-06-08T00:14:16.181Z,46.10
2018-06-08T00:19:15.974Z,46.70
2018-06-08T00:21:45.577Z,47.00
2018-06-08T00:24:14.964Z,47.20
2018-06-08T00:26:43.476Z,47.20
2018-06-08T00:29:12.870Z,47.20
2018-06-08T00:31:42.806Z,47.20
2018-06-08T00:34:13.017Z,47.60
2018-06-08T00:36:41.450Z,47.60
2018-06-08T00:39:11.206Z,47.80
2018-06-08T00:41:39.794Z,47.70
2018-06-08T00:44:08.286Z,48.00
2018-06-08T00:49:07.686Z,48.40
2018-06-08T00:51:37.609Z,48.30
2018-06-08T00:54:06.245Z,48.30
2018-06-08T00:56:46.544Z,48.30
2018-06-08T00:59:14.918Z,48.80
2018-06-08T01:01:43.379Z,48.70
2018-06-08T01:04:13.633Z,48.60
2018-06-08T01:09:11.060Z,49.00
2018-06-08T01:11:39.522Z,48.80
2018-06-08T01:14:07.986Z,48.70
2018-06-08T01:16:36.483Z,48.80
2018-06-08T01:21:34.192Z,49.20
2018-06-08T01:24:02.609Z,49.40
2018-06-08T01:26:31.031Z,49.20
2018-06-08T01:31:28.440Z,49.80
2018-06-08T01:33:56.904Z,49.80
2018-06-08T01:36:25.375Z,50.00
2018-06-08T01:38:53.916Z,50.00
2018-06-08T01:41:23.649Z,50.30
2018-06-08T01:50:36.896Z,50.20
2018-06-08T01:53:06.450Z,50.20
2018-06-08T01:55:34.921Z,50.20
2018-06-08T01:58:03.370Z,50.40
2018-06-08T02:00:33.365Z,50.70
2018-06-08T02:03:01.789Z,50.50
2018-06-08T02:05:30.251Z,50.50
2018-06-08T02:10:28.485Z,51.30
2018-06-08T02:12:58.230Z,51.20
2018-06-08T02:15:27.484Z,51.20
2018-06-08T02:17:56.022Z,51.70
2018-06-08T02:20:25.515Z,51.50
2018-06-08T02:22:54.034Z,51.90
2018-06-08T02:25:24.219Z,51.80
2018-06-08T02:27:52.694Z,51.40
2018-06-08T02:30:21.090Z,51.60
2018-06-08T02:32:50.832Z,51.80
2018-06-08T02:35:19.279Z,51.60
2018-06-08T02:37:47.701Z,51.40
2018-06-08T02:40:16.153Z,51.30
2018-06-08T02:42:44.609Z,51.50
2018-06-08T02:45:14.009Z,51.60
2018-06-08T02:47:42.611Z,51.50
2018-06-08T02:50:11.907Z,51.90
2018-06-08T02:52:41.302Z,51.50
2018-06-08T02:55:09.855Z,51.10
2018-06-08T02:57:39.202Z,50.70
2018-06-08T03:00:07.694Z,50.70
2018-06-08T03:02:37.478Z,50.50
2018-06-08T03:07:36.723Z,50.20
2018-06-08T03:10:05.367Z,50.00
2018-06-08T03:12:35.068Z,48.90
2018-06-08T03:15:04.563Z,48.60
2018-06-08T03:17:32.978Z,47.80
2018-06-08T03:20:01.410Z,47.00
2018-06-08T03:22:31.049Z,46.90
2018-06-08T03:25:01.403Z,45.90
2018-06-08T03:29:59.079Z,45.10
2018-06-08T03:34:56.691Z,44.40
2018-06-08T03:37:26.499Z,44.00
2018-06-08T03:39:55.939Z,44.10
2018-06-08T03:42:24.375Z,44.10
2018-06-08T03:47:24.089Z,45.20
2018-06-08T03:52:21.850Z,46.50
2018-06-08T03:54:51.761Z,46.20
2018-06-08T03:57:22.145Z,46.20
2018-06-08T03:59:51.504Z,46.20
2018-06-08T04:02:19.997Z,45.70
2018-06-08T04:04:48.442Z,45.90
2018-06-08T04:07:18.508Z,45.90
2018-06-08T04:09:48.520Z,46.50
2018-06-08T04:12:18.195Z,47.10
2018-06-08T04:14:46.681Z,46.90
2018-06-08T04:17:15.134Z,47.70
2018-06-08T04:19:43.592Z,48.50
2018-06-08T04:22:12.073Z,48.80
2018-06-08T04:24:41.521Z,49.20
2018-06-08T04:29:55.890Z,49.20
2018-06-08T04:32:26.126Z,49.10
2018-06-08T04:34:54.827Z,48.90
2018-06-08T04:37:25.127Z,48.10
2018-06-08T04:39:55.446Z,47.20
2018-06-08T04:42:25.072Z,46.60
2018-06-08T04:44:53.506Z,45.50
2018-06-08T04:47:22.785Z,44.30
2018-06-08T04:49:52.359Z,43.20
2018-06-08T04:52:22.582Z,43.40
2018-06-08T04:54:50.992Z,43.30
2018-06-08T04:57:19.500Z,43.30
2018-06-08T04:59:49.280Z,43.50
2018-06-08T05:02:17.845Z,42.90
2018-06-08T05:04:47.521Z,42.20
2018-06-08T05:07:15.923Z,42.10
2018-06-08T05:09:44.407Z,41.30
2018-06-08T05:12:12.969Z,40.00
2018-06-08T05:14:41.485Z,38.30
2018-06-08T05:17:10.185Z,37.40
2018-06-08T05:19:38.620Z,36.20
2018-06-08T05:22:08.352Z,34.50
2018-06-08T05:24:37.593Z,34.50
2018-06-08T05:27:07.163Z,34.30
2018-06-08T05:29:35.814Z,33.30
2018-06-08T05:32:05.757Z,33.70
2018-06-08T05:34:34.252Z,32.10
2018-06-08T05:37:03.444Z,32.20
2018-06-08T05:39:32.018Z,32.00
2018-06-08T05:42:00.438Z,31.80
2018-06-08T05:44:30.193Z,31.30
2018-06-08T05:46:59.752Z,31.30
2018-06-08T05:49:28.914Z,30.60
2018-06-08T05:51:57.347Z,32.10
2018-06-08T05:54:26.770Z,32.00
2018-06-08T05:56:56.374Z,33.00
2018-06-08T05:59:24.840Z,32.90
2018-06-08T06:01:54.519Z,32.30
2018-06-08T06:04:24.054Z,32.30
2018-06-08T06:06:52.470Z,32.10
2018-06-08T06:09:22.151Z,32.40
2018-06-08T06:11:51.613Z,32.60
2018-06-08T06:14:22.573Z,31.80
2018-06-08T06:16:51.002Z,32.30
2018-06-08T06:19:20.605Z,31.80
2018-06-08T06:21:49.347Z,31.40
2018-06-08T06:24:19.217Z,32.30
2018-06-08T06:26:49.235Z,31.40
2018-06-08T06:29:19.044Z,30.80
2018-06-08T06:31:47.496Z,31.80
2018-06-08T06:34:16.744Z,32.00
2018-06-08T06:36:46.287Z,32.50
2018-06-08T06:39:14.766Z,31.80
2018-06-08T06:41:43.232Z,32.00
2018-06-08T06:44:13.219Z,33.90
2018-06-08T06:46:42.143Z,31.90
2018-06-08T06:49:11.862Z,33.00
2018-06-08T06:51:40.347Z,33.70
2018-06-08T06:54:08.837Z,34.50
2018-06-08T06:56:38.668Z,34.60
2018-06-08T06:59:07.150Z,35.30
2018-06-08T07:01:36.864Z,35.80
2018-06-08T07:04:06.788Z,36.10
2018-06-08T07:06:36.245Z,35.20
2018-06-08T07:09:08.242Z,36.40
2018-06-08T07:11:37.732Z,36.50
2018-06-08T07:14:07.258Z,36.80
2018-06-08T07:16:37.279Z,37.20
2018-06-08T07:19:07.198Z,37.00
2018-06-08T07:21:35.632Z,36.30
2018-06-08T07:24:05.387Z,36.90
2018-06-08T07:26:35.205Z,36.90
2018-06-08T07:29:04.958Z,37.40
2018-06-08T07:31:34.287Z,37.80
2018-06-08T07:34:04.434Z,37.50
2018-06-08T07:39:03.913Z,36.30
2018-06-08T07:41:32.510Z,37.00
2018-06-08T07:44:00.944Z,37.90
2018-06-08T07:46:31.134Z,37.70
2018-06-08T07:48:59.551Z,37.10
2018-06-08T07:51:29.741Z,38.00
2018-06-08T07:54:00.061Z,37.70
2018-06-08T07:56:29.773Z,37.10
2018-06-08T07:58:59.688Z,36.70
2018-06-08T08:01:29.599Z,36.00
2018-06-08T08:03:59.663Z,36.60
2018-06-08T08:06:29.333Z,36.00
2018-06-08T08:08:58.843Z,35.30
2018-06-08T08:11:28.757Z,37.00
2018-06-08T08:13:58.487Z,36.30
2018-06-08T08:16:28.167Z,35.80
2018-06-08T08:18:58.073Z,36.60
2018-06-08T08:21:27.010Z,35.90
2018-06-08T08:23:56.187Z,36.10
2018-06-08T08:26:25.680Z,36.30
2018-06-08T08:28:55.752Z,36.20
2018-06-08T08:31:25.726Z,35.90
2018-06-08T08:33:55.045Z,35.80
2018-06-08T08:36:24.154Z,36.00
2018-06-08T08:38:53.701Z,36.40
2018-06-08T08:41:22.171Z,36.70
2018-06-08T08:43:51.412Z,36.80
2018-06-08T08:46:21.104Z,35.90
2018-06-08T08:48:50.543Z,36.50
2018-06-08T08:51:20.215Z,36.60
2018-06-08T08:53:49.429Z,36.10
2018-06-08T08:56:18.984Z,36.40
2018-06-08T08:58:48.419Z,34.90
2018-06-08T09:01:17.736Z,36.00
2018-06-08T09:03:47.396Z,35.20
2018-06-08T09:06:17.458Z,35.10
2018-06-08T09:08:47.390Z,36.40
2018-06-08T09:11:16.979Z,37.30
2018-06-08T09:13:45.448Z,37.70
2018-06-08T09:16:13.891Z,37.30
2018-06-08T09:18:43.096Z,37.50
2018-06-08T09:21:12.335Z,37.40
2018-06-08T09:23:40.801Z,37.00
2018-06-08T09:26:10.752Z,37.30
2018-06-08T09:28:39.229Z,37.50
2018-06-08T09:31:09.139Z,36.70
2018-06-08T09:33:37.698Z,37.30
2018-06-08T09:36:06.138Z,36.50
2018-06-08T09:38:34.696Z,36.70
2018-06-08T09:41:03.878Z,37.90
2018-06-08T09:43:32.333Z,36.90
2018-06-08T09:46:00.918Z,36.80
2018-06-08T09:48:30.354Z,36.90
2018-06-08T09:51:00.362Z,36.90
2018-06-08T09:53:28.824Z,36.10
2018-06-08T09:55:58.072Z,36.50
2018-06-08T09:58:28.359Z,37.10
2018-06-08T10:00:56.825Z,36.00
2018-06-08T10:03:25.276Z,37.00
2018-06-08T10:05:54.969Z,37.20
2018-06-08T10:08:24.583Z,36.70
2018-06-08T10:10:53.036Z,37.10
2018-06-08T10:13:21.462Z,37.00
2018-06-08T10:15:51.313Z,37.70
2018-06-08T10:18:20.773Z,37.80
2018-06-08T10:20:50.260Z,35.80
2018-06-08T10:25:47.860Z,36.70
2018-06-08T10:28:18.155Z,36.40
2018-06-08T10:30:46.686Z,36.70
2018-06-08T10:33:15.129Z,35.70
2018-06-08T10:35:44.956Z,35.70
2018-06-08T10:38:14.315Z,36.30
2018-06-08T10:40:43.868Z,35.30
2018-06-08T10:43:13.619Z,36.20
2018-06-08T10:45:42.909Z,36.10
2018-06-08T10:48:12.251Z,35.00
2018-06-08T10:50:40.703Z,35.60
2018-06-08T10:53:09.150Z,34.70
2018-06-08T10:55:37.604Z,34.70
2018-06-08T10:58:07.415Z,33.80
2018-06-08T11:00:36.754Z,35.10
2018-06-08T11:03:05.259Z,34.80
2018-06-08T11:05:35.243Z,36.10
2018-06-08T11:08:05.011Z,34.40
2018-06-08T11:10:33.529Z,35.10
2018-06-08T11:13:01.997Z,34.80
2018-06-08T11:15:31.705Z,34.80
2018-06-08T11:18:01.556Z,34.00
2018-06-08T11:20:30.010Z,35.00
2018-06-08T11:22:58.441Z,34.70
2018-06-08T11:25:28.026Z,34.50
2018-06-08T11:27:57.515Z,33.90
2018-06-08T11:30:27.354Z,34.90
2018-06-08T11:32:55.799Z,33.70
2018-06-08T11:35:25.452Z,33.50
2018-06-08T11:37:55.146Z,34.00
2018-06-08T11:40:23.714Z,32.70
2018-06-08T11:42:53.750Z,32.60
2018-06-08T11:45:22.310Z,33.80
2018-06-08T11:47:51.953Z,33.10
2018-06-08T11:50:20.582Z,33.20
2018-06-08T11:52:50.548Z,33.50
2018-06-08T11:55:20.735Z,33.50
2018-06-08T11:57:49.213Z,33.10
2018-06-08T12:00:18.657Z,33.60
2018-06-08T12:05:16.244Z,32.60
2018-06-08T12:07:45.439Z,32.20
2018-06-08T12:10:15.440Z,33.30
2018-06-08T12:12:44.948Z,31.80
2018-06-08T12:15:15.171Z,32.50
2018-06-08T12:17:44.770Z,32.40
2018-06-08T12:20:14.180Z,33.70
2018-06-08T12:22:43.844Z,33.60
2018-06-08T12:25:13.708Z,33.70
2018-06-08T12:27:43.161Z,33.30
2018-06-08T12:30:12.923Z,33.80
2018-06-08T12:32:42.647Z,33.30
2018-06-08T12:35:12.454Z,33.90
2018-06-08T12:37:42.339Z,34.50
2018-06-08T12:40:11.864Z,34.70
2018-06-08T12:42:40.400Z,34.10
2018-06-08T12:45:10.137Z,34.40
2018-06-08T12:47:39.595Z,34.00
2018-06-08T12:52:38.276Z,33.60
2018-06-08T12:55:06.692Z,32.40
2018-06-08T12:57:35.124Z,33.90
2018-06-08T13:00:03.809Z,34.30
2018-06-08T13:02:33.439Z,34.40
2018-06-08T13:05:03.333Z,33.40
2018-06-08T13:07:31.925Z,33.20
2018-06-08T13:10:01.043Z,32.30
2018-06-08T13:12:30.934Z,32.40
2018-06-08T13:14:59.363Z,32.20
2018-06-08T13:17:29.227Z,32.40
2018-06-08T13:20:08.553Z,32.90
2018-06-08T13:22:38.023Z,32.90
2018-06-08T13:25:07.557Z,32.60
2018-06-08T13:27:37.279Z,33.50
2018-06-08T13:30:05.814Z,32.90
2018-06-08T13:32:35.182Z,33.30
2018-06-08T13:35:03.702Z,33.40
2018-06-08T13:37:32.991Z,31.90
2018-06-08T13:40:02.547Z,31.90
2018-06-08T13:42:32.600Z,32.40
2018-06-08T13:45:01.920Z,34.00
2018-06-08T13:47:31.367Z,32.50
2018-06-08T13:50:01.554Z,34.30
2018-06-08T13:52:30.848Z,32.80
2018-06-08T13:55:00.386Z,32.50
2018-06-08T13:57:30.176Z,31.20
2018-06-08T13:59:58.651Z,33.00
2018-06-08T14:02:28.008Z,31.20
2018-06-08T14:04:56.431Z,32.30
2018-06-08T14:07:24.816Z,32.00
2018-06-08T14:09:54.350Z,31.40
2018-06-08T14:12:22.827Z,31.60
2018-06-08T14:14:52.668Z,31.50
2018-06-08T14:17:22.777Z,31.00
2018-06-08T14:19:53.026Z,31.50
2018-06-08T14:22:23.235Z,31.10
2018-06-08T14:27:23.330Z,31.20
2018-06-08T14:29:51.803Z,31.60
2018-06-08T14:32:20.325Z,32.10
2018-06-08T14:34:49.789Z,31.60
2018-06-08T14:37:19.149Z,32.50
2018-06-08T14:39:48.679Z,31.80
2018-06-08T14:42:17.158Z,32.30
2018-06-08T14:44:46.346Z,31.70
2018-06-08T14:47:16.008Z,32.90
2018-06-08T14:49:44.460Z,33.00
2018-06-08T14:52:12.876Z,33.70
2018-06-08T14:54:41.428Z,34.20
2018-06-08T14:57:11.401Z,33.40
2018-06-08T14:59:39.881Z,31.60
2018-06-08T15:02:09.661Z,31.70
2018-06-08T15:04:39.624Z,34.20
2018-06-08T15:07:08.135Z,34.40
2018-06-08T15:09:36.600Z,32.90
2018-06-08T15:12:05.120Z,31.70
2018-06-08T15:14:33.574Z,31.90
2018-06-08T15:17:03.398Z,31.00
2018-06-08T15:19:33.212Z,31.40
2018-06-08T15:22:02.875Z,31.90
2018-06-08T15:24:31.514Z,32.10
2018-06-08T15:27:01.444Z,32.10
2018-06-08T15:29:30.913Z,31.60
2018-06-08T15:32:00.474Z,32.00
2018-06-08T15:34:30.471Z,32.20
2018-06-08T15:37:00.282Z,34.80
2018-06-08T15:39:28.762Z,34.10
2018-06-08T15:41:57.204Z,35.80
2018-06-08T15:44:25.639Z,34.90
2018-06-08T15:46:54.166Z,34.20
2018-06-08T15:49:23.783Z,32.70
2018-06-08T15:51:52.190Z,34.60
2018-06-08T15:54:21.887Z,35.40
2018-06-08T15:56:50.410Z,33.80
2018-06-08T15:59:19.615Z,33.70
2018-06-08T16:01:48.189Z,33.10
2018-06-08T16:04:16.687Z,32.80
2018-06-08T16:06:45.172Z,32.80
2018-06-08T16:09:13.592Z,32.10
2018-06-08T16:11:42.112Z,33.50
2018-06-08T16:14:10.652Z,32.10
2018-06-08T16:16:40.282Z,31.10
2018-06-08T16:19:08.748Z,31.40
2018-06-08T16:21:38.254Z,30.30
2018-06-08T16:24:08.160Z,30.50
2018-06-08T16:26:36.708Z,30.90
2018-06-08T16:29:06.210Z,31.50
2018-06-08T16:31:34.603Z,31.40
2018-06-08T16:36:31.767Z,31.20
2018-06-08T16:39:00.218Z,31.50
2018-06-08T16:41:28.745Z,31.20
2018-06-08T16:43:57.189Z,31.30
2018-06-08T16:46:26.758Z,31.30
2018-06-08T16:48:55.189Z,31.40
2018-06-08T16:51:23.878Z,31.60
2018-06-08T16:53:53.964Z,31.70
2018-06-08T16:56:22.457Z,31.30
2018-06-08T16:58:52.244Z,30.70
2018-06-08T17:01:20.696Z,30.20
2018-06-08T17:03:49.995Z,30.60
2018-06-08T17:06:18.467Z,30.70
2018-06-08T17:08:47.017Z,30.50
2018-06-08T17:11:16.797Z,30.40
2018-06-08T17:13:46.920Z,30.00
2018-06-08T17:16:15.428Z,29.80
2018-06-08T17:18:45.018Z,29.60
2018-06-08T17:21:13.485Z,30.00
2018-06-08T17:23:43.116Z,29.40
2018-06-08T17:26:11.589Z,29.20
2018-06-08T17:28:40.475Z,29.40
2018-06-08T17:31:09.152Z,29.50
2018-06-08T17:33:38.758Z,29.40
2018-06-08T17:36:07.301Z,29.20
2018-06-08T17:38:35.737Z,29.30
2018-06-08T17:41:05.277Z,29.10
2018-06-08T17:43:33.719Z,29.00
2018-06-08T17:46:03.441Z,29.10
2018-06-08T17:48:33.284Z,29.50
2018-06-08T17:51:01.726Z,30.00
2018-06-08T17:53:30.317Z,30.80
2018-06-08T17:55:58.876Z,31.50
2018-06-08T17:58:28.954Z,32.20
2018-06-08T18:00:58.316Z,32.10
2018-06-08T18:03:27.813Z,33.20
2018-06-08T18:05:56.237Z,33.60
2018-06-08T18:08:26.124Z,34.00
2018-06-08T18:10:54.711Z,34.10
2018-06-08T18:13:38.931Z,34.30
2018-06-08T18:16:08.597Z,34.40
2018-06-08T18:18:37.667Z,34.60
2018-06-08T18:21:06.109Z,34.90
2018-06-08T18:23:35.666Z,35.10
2018-06-08T18:26:04.650Z,35.40
2018-06-08T18:28:34.776Z,35.50
2018-06-08T18:33:32.923Z,35.70
2018-06-08T18:36:02.991Z,35.90
2018-06-08T18:41:03.071Z,36.70
2018-06-08T18:43:32.716Z,36.50
2018-06-08T18:46:01.161Z,37.60
2018-06-08T18:48:30.942Z,36.90
2018-06-08T18:51:00.447Z,36.80
2018-06-08T18:53:28.868Z,37.00
2018-06-08T18:55:57.252Z,36.90
2018-06-08T18:58:28.077Z,37.00
2018-06-08T19:00:56.524Z,37.00
2018-06-08T19:03:25.121Z,37.10
2018-06-08T19:05:53.543Z,37.40
2018-06-08T19:08:22.212Z,37.30
2018-06-08T19:10:50.673Z,37.50
2018-06-08T19:13:19.094Z,37.70
2018-06-08T19:15:48.427Z,37.90
2018-06-08T19:18:17.985Z,38.20
2018-06-08T19:20:48.204Z,38.20
2018-06-08T19:23:16.664Z,38.30
2018-06-08T19:25:46.492Z,38.70
2018-06-08T19:28:16.831Z,38.90
2018-06-08T19:30:46.389Z,38.80
2018-06-08T19:33:14.807Z,38.70
2018-06-08T19:35:45.202Z,39.10
2018-06-08T19:38:18.429Z,39.20
2018-06-08T19:40:49.321Z,39.30
2018-06-08T19:43:20.310Z,39.40
2018-06-08T19:45:50.318Z,40.00
2018-06-08T19:48:19.812Z,40.00
2018-06-08T19:50:49.280Z,40.10
2018-06-08T19:53:17.715Z,40.30
2018-06-08T19:55:47.511Z,40.40
2018-06-08T19:58:16.929Z,40.80
2018-06-08T20:00:46.930Z,40.80
2018-06-08T20:03:15.484Z,41.00
2018-06-08T20:05:44.980Z,41.40
2018-06-08T20:08:14.216Z,41.40
2018-06-08T20:10:42.847Z,41.70
2018-06-08T20:15:40.918Z,42.00
2018-06-08T20:18:09.359Z,42.30
2018-06-08T20:20:40.989Z,42.50
2018-06-08T20:23:10.661Z,42.70
2018-06-08T20:25:40.994Z,42.60
2018-06-08T20:28:12.513Z,42.60
2018-06-08T20:30:43.003Z,43.00
2018-06-08T20:33:15.114Z,43.40
2018-06-08T20:35:47.064Z,43.70
2018-06-08T20:38:16.924Z,44.00
2018-06-08T20:40:45.375Z,44.10
2018-06-08T20:43:15.392Z,44.70
2018-06-08T20:45:45.509Z,45.10
2018-06-08T20:48:15.344Z,45.50
2018-06-08T20:50:44.730Z,45.60
2018-06-08T20:53:14.237Z,45.80
2018-06-08T20:55:43.831Z,46.70
2018-06-08T20:58:20.112Z,46.20
2018-06-08T21:00:49.450Z,46.30
2018-06-08T21:03:19.463Z,46.40
2018-06-08T21:05:48.808Z,46.80
2018-06-08T21:08:18.873Z,46.80
2018-06-08T21:10:48.181Z,46.80
2018-06-08T21:13:18.257Z,46.70
2018-06-08T21:15:47.562Z,47.10
2018-06-08T21:18:17.561Z,47.40
2018-06-08T21:20:47.058Z,47.80
2018-06-08T21:23:16.981Z,48.10
2018-06-08T21:25:46.746Z,48.00
2018-06-08T21:28:16.462Z,47.90
2018-06-08T21:30:46.345Z,48.00
2018-06-08T21:33:15.813Z,48.00
2018-06-08T21:35:46.063Z,48.30
2018-06-08T21:38:15.386Z,48.20
2018-06-08T21:40:43.871Z,48.20
2018-06-08T21:45:43.408Z,48.40
2018-06-08T21:48:13.305Z,48.50
2018-06-08T21:50:43.701Z,48.30
2018-06-08T21:53:13.048Z,48.60
2018-06-08T21:58:12.363Z,48.70
2018-06-08T22:00:41.133Z,48.80
2018-06-08T22:03:11.161Z,48.90
2018-06-08T22:05:40.776Z,49.00
2018-06-08T22:08:10.531Z,49.10
2018-06-08T22:10:39.985Z,49.30
2018-06-08T22:13:11.097Z,49.40
2018-06-08T22:15:41.338Z,49.60
2018-06-08T22:18:10.533Z,49.60
2018-06-08T22:20:40.219Z,50.10
2018-06-08T22:23:09.517Z,50.60
2018-06-08T22:25:38.063Z,50.30
2018-06-08T22:28:07.302Z,50.60
2018-06-08T22:30:37.311Z,50.90
2018-06-08T22:33:07.072Z,51.10
2018-06-08T22:35:37.465Z,51.30
2018-06-08T22:38:07.041Z,51.50
2018-06-08T22:40:37.018Z,51.70
2018-06-08T22:43:07.067Z,52.10
2018-06-08T22:45:37.109Z,52.60
2018-06-08T22:48:06.626Z,52.80
2018-06-08T22:50:36.628Z,53.30
2018-06-08T22:53:06.143Z,53.70
2018-06-08T22:55:36.158Z,53.80
2018-06-08T22:58:05.639Z,53.80
2018-06-08T23:00:35.472Z,53.80
2018-06-08T23:03:05.705Z,54.10
2018-06-08T23:05:35.218Z,54.20
2018-06-08T23:08:05.239Z,54.30
2018-06-08T23:10:34.645Z,54.20
2018-06-08T23:13:04.728Z,54.30
2018-06-08T23:15:34.385Z,54.20
2018-06-08T23:18:03.566Z,54.70
2018-06-08T23:20:33.377Z,54.70
2018-06-08T23:23:03.110Z,54.90
2018-06-08T23:25:33.291Z,55.20
2018-06-08T23:28:03.436Z,55.00
2018-06-08T23:30:33.531Z,55.10
2018-06-08T23:33:03.090Z,55.10
2018-06-08T23:35:33.273Z,55.70
2018-06-08T23:38:03.070Z,55.70
2018-06-08T23:40:32.689Z,55.70
2018-06-08T23:49:47.388Z,56.70
2018-06-08T23:52:17.447Z,57.50
2018-06-08T23:54:47.630Z,57.90
2018-06-08T23:57:17.502Z,57.80
2018-06-08T23:59:47.147Z,57.70
